CDT,Max TemperatureF,Mean TemperatureF,Min TemperatureF,Max Dew PointF,MeanDew PointF,Min DewpointF,Max Humidity, Mean Humidity, Min Humidity, Max Sea Level PressureIn, Mean Sea Level PressureIn, Min Sea Level PressureIn, Max VisibilityMiles, Mean VisibilityMiles, Min VisibilityMiles, Max Wind SpeedMPH, Mean Wind SpeedMPH, Max Gust SpeedMPH,PrecipitationIn, CloudCover, Events, WindDirDegrees
2013-10-1,87,73,60,67,58,54,83,62,33,29.97,29.92,29.88,10,10,10,16,5,22,0.00,1,,154
2013-10-2,88,79,70,69,67,61,89,71,43,30.02,29.95,29.89,10,10,7,14,8,20,0.00,4,,160
2013-10-3,89,80,71,70,67,62,91,67,42,29.97,29.91,29.85,10,10,5,16,11,22,0.00,3,,170
2013-10-4,88,78,69,68,66,64,89,67,45,29.95,29.90,29.86,10,10,10,16,9,21,0.00,2,,169
2013-10-5,76,64,50,69,53,35,90,72,40,30.17,30.05,29.90,10,10,4,21,10,29,0.07,6,,342
2013-10-6,75,60,46,49,39,27,92,55,17,30.21,30.15,30.12,10,10,10,17,5,24,0.00,0,,319
2013-10-7,81,64,47,46,40,33,82,47,20,30.21,30.15,30.10,10,10,10,9,1,,0.00,0,,1
2013-10-8,82,67,52,44,42,37,65,41,24,30.14,30.08,30.01,10,10,10,10,3,18,0.00,0,,151
2013-10-9,82,66,52,52,46,42,74,50,25,30.10,30.04,29.99,10,10,10,13,5,20,0.03,0,,155
2013-10-10,81,70,58,62,57,52,88,65,45,30.08,30.00,29.90,10,10,10,16,7,22,0.00,1,,164
2013-10-11,85,76,68,67,65,59,88,71,49,29.96,29.91,29.87,10,10,10,17,9,22,0.00,3,,177
2013-10-12,87,78,68,72,68,62,93,76,48,30.11,30.01,29.93,10,8,0,10,3,,0.00,4,,176
2013-10-13,77,72,68,66,65,62,91,80,60,30.25,30.17,30.10,10,9,3,14,5,18,0.09,7,,109
2013-10-14,79,73,68,69,67,65,93,87,71,30.17,30.05,29.94,10,7,1,14,8,20,1.61,7,,153
2013-10-15,72,61,50,69,60,48,92,90,87,30.14,30.02,29.94,10,8,1,16,9,24,0.71,7,,289
2013-10-16,63,56,50,50,47,43,92,74,48,30.16,30.11,30.08,10,10,5,15,10,22,0.17,7,,355
2013-10-17,70,56,43,47,43,39,92,65,33,30.17,30.10,30.02,10,10,10,6,1,,0.00,0,,128
2013-10-18,67,56,47,57,51,43,88,79,67,30.17,30.02,29.93,10,10,2,24,4,32,0.20,6,,148
2013-10-19,63,52,40,43,38,33,89,68,33,30.27,30.18,30.12,10,10,4,20,10,25,0.00,2,,344
2013-10-20,72,57,42,50,44,38,88,66,42,30.12,30.00,29.90,10,10,10,15,4,23,0.00,0,,169
2013-10-21,68,60,51,55,51,47,88,77,61,30.17,30.02,29.92,10,10,10,14,6,17,0.00,4,,301
2013-10-22,74,58,42,46,40,32,90,58,25,30.23,30.16,30.10,10,10,10,8,3,,0.00,0,,302
2013-10-23,81,66,51,49,42,37,72,48,21,30.19,30.14,30.10,10,10,10,9,2,,0.00,0,,260
2013-10-24,79,65,51,50,45,39,80,53,25,30.29,30.21,30.14,10,10,10,9,2,,0.00,0,,245
2013-10-25,72,60,48,54,50,43,81,69,49,30.40,30.32,30.26,10,10,7,12,7,16,0.00,1,,94
2013-10-26,76,68,59,62,58,52,88,79,58,30.26,30.17,30.07,10,9,3,17,8,22,0.00,6,,173
2013-10-27,66,60,55,59,56,54,94,87,66,30.19,30.11,30.05,10,6,0,8,2,,0.00,6,,349
2013-10-28,75,65,56,65,62,54,94,85,70,30.12,30.06,30.01,10,7,0,14,7,20,0.00,7,,158
2013-10-29,77,72,67,68,66,63,91,81,69,30.09,30.05,30.01,10,10,4,15,10,21,0.00,5,,161
2013-10-30,74,71,68,70,67,65,91,87,80,30.05,29.95,29.83,10,9,1,15,10,22,0.02,7,,165
2013-10-31,73,61,50,68,48,32,93,58,26,29.92,29.86,29.77,10,9,1,23,8,31,0.01,2,,261